createdAt,value
2022-11-02T00:02:00.079Z,10.89
2022-11-02T00:04:43.601Z,10.84
2022-11-02T00:07:26.970Z,10.62
2022-11-02T00:10:11.456Z,10.64
2022-11-02T00:12:54.858Z,10.88
2022-11-02T00:15:38.352Z,10.60
2022-11-02T00:18:22.277Z,10.55
2022-11-02T00:21:05.986Z,10.55
2022-11-02T00:23:50.273Z,10.68
2022-11-02T00:26:36.439Z,10.55
2022-11-02T00:29:20.990Z,10.64
2022-11-02T00:32:04.576Z,10.72
2022-11-02T00:34:47.945Z,10.55
2022-11-02T00:40:35.837Z,10.51
2022-11-02T00:43:19.210Z,10.81
2022-11-02T00:46:02.646Z,10.45
2022-11-02T00:48:46.017Z,10.40
2022-11-02T00:51:29.511Z,10.58
2022-11-02T00:54:12.895Z,10.60
2022-11-02T00:56:56.361Z,10.66
2022-11-02T00:59:39.770Z,10.72
2022-11-02T01:02:24.581Z,10.55
2022-11-02T01:05:10.412Z,10.61
2022-11-02T01:07:53.837Z,10.41
2022-11-02T01:10:37.215Z,10.74
2022-11-02T01:13:20.576Z,10.30
2022-11-02T01:16:05.427Z,10.48
2022-11-02T01:18:55.456Z,10.48
2022-11-02T01:21:39.024Z,10.27
2022-11-02T01:24:22.417Z,10.49
2022-11-02T01:27:05.846Z,10.16
2022-11-02T01:29:49.215Z,10.24
2022-11-02T01:32:32.591Z,10.22
2022-11-02T01:35:16.875Z,10.16
2022-11-02T01:38:00.259Z,10.27
2022-11-02T01:40:43.846Z,10.23
2022-11-02T01:43:36.674Z,10.03
2022-11-02T01:46:28.840Z,10.15
2022-11-02T01:49:18.201Z,9.96
2022-11-02T01:52:15.680Z,10.17
2022-11-02T01:55:38.200Z,10.06
2022-11-02T01:58:21.943Z,9.89
2022-11-02T02:01:06.639Z,9.98
2022-11-02T02:03:53.660Z,10.00
2022-11-02T02:06:39.400Z,10.11
2022-11-02T02:09:24.464Z,10.08
2022-11-02T02:12:08.000Z,10.08
2022-11-02T02:14:53.616Z,9.97
2022-11-02T02:18:02.066Z,9.95
2022-11-02T02:21:01.140Z,9.64
2022-11-02T02:24:17.292Z,9.66
2022-11-02T02:27:13.041Z,9.93
2022-11-02T02:30:09.644Z,10.00
2022-11-02T02:33:05.793Z,9.68
2022-11-02T02:36:01.023Z,9.76
2022-11-02T02:39:05.098Z,9.66
2022-11-02T02:42:12.399Z,9.58
2022-11-02T02:45:32.096Z,9.47
2022-11-02T02:48:21.009Z,9.65
2022-11-02T02:51:12.034Z,9.56
2022-11-02T02:54:28.872Z,9.52
2022-11-02T02:57:22.078Z,9.45
2022-11-02T03:00:12.026Z,9.71
2022-11-02T03:03:01.601Z,9.52
2022-11-02T03:06:02.084Z,9.42
2022-11-02T03:09:07.321Z,9.43
2022-11-02T03:12:24.156Z,9.41
2022-11-02T03:15:20.260Z,9.37
2022-11-02T03:18:31.914Z,9.47
2022-11-02T03:21:41.939Z,9.43
2022-11-02T03:24:47.396Z,9.56
2022-11-02T03:27:48.547Z,9.34
2022-11-02T03:30:44.645Z,9.42
2022-11-02T03:33:45.567Z,9.43
2022-11-02T03:37:01.558Z,9.23
2022-11-02T03:39:52.376Z,9.22
2022-11-02T03:42:39.052Z,9.07
2022-11-02T03:45:36.871Z,9.00
2022-11-02T03:48:25.832Z,9.10
2022-11-02T03:51:23.340Z,9.20
2022-11-02T03:54:12.276Z,9.23
2022-11-02T04:00:16.645Z,9.06
2022-11-02T04:03:07.429Z,9.07
2022-11-02T04:05:55.573Z,9.07
2022-11-02T04:08:47.791Z,9.12
2022-11-02T04:11:51.682Z,9.19
2022-11-02T04:14:38.334Z,9.01
2022-11-02T04:17:45.006Z,9.08
2022-11-02T04:20:31.305Z,9.17
2022-11-02T04:23:33.364Z,9.12
2022-11-02T04:26:17.529Z,9.01
2022-11-02T04:29:02.631Z,9.08
2022-11-02T04:31:46.566Z,9.06
2022-11-02T04:34:31.507Z,9.04
2022-11-02T04:37:33.491Z,9.24
2022-11-02T04:40:17.694Z,9.08
2022-11-02T04:43:01.103Z,9.08
2022-11-02T04:45:44.771Z,9.09
2022-11-02T04:48:28.425Z,9.10
2022-11-02T04:51:11.766Z,9.02
2022-11-02T04:53:57.984Z,8.99
2022-11-02T04:56:41.634Z,8.65
2022-11-02T04:59:25.062Z,8.70
2022-11-02T05:02:09.402Z,8.72
2022-11-02T05:04:52.935Z,8.89
2022-11-02T05:07:36.439Z,8.56
2022-11-02T05:10:19.963Z,8.81
2022-11-02T05:13:05.144Z,8.95
2022-11-02T05:15:51.627Z,8.86
2022-11-02T05:18:34.970Z,9.13
2022-11-02T05:21:18.892Z,9.04
2022-11-02T05:24:02.284Z,8.99
2022-11-02T05:26:52.849Z,8.84
2022-11-02T05:29:37.623Z,8.87
2022-11-02T05:32:21.024Z,8.97
2022-11-02T05:35:04.812Z,8.82
2022-11-02T05:37:49.669Z,8.72
2022-11-02T05:40:34.636Z,8.82
2022-11-02T05:43:18.082Z,8.58
2022-11-02T05:46:03.817Z,8.68
2022-11-02T05:48:47.264Z,8.57
2022-11-02T05:51:30.690Z,8.58
2022-11-02T05:54:14.110Z,8.62
2022-11-02T05:56:57.596Z,8.50
2022-11-02T05:59:42.744Z,8.53
2022-11-02T06:02:28.514Z,8.68
2022-11-02T06:05:11.966Z,8.77
2022-11-02T06:07:59.821Z,8.85
2022-11-02T06:10:43.436Z,8.71
2022-11-02T06:13:26.781Z,8.93
2022-11-02T06:16:12.452Z,8.66
2022-11-02T06:18:55.904Z,8.52
2022-11-02T06:21:41.106Z,8.57
2022-11-02T06:24:26.770Z,8.70
2022-11-02T06:27:10.130Z,8.77
2022-11-02T06:29:54.092Z,8.70
2022-11-02T06:32:37.590Z,8.61
2022-11-02T06:35:23.430Z,8.66
2022-11-02T06:38:06.801Z,8.61
2022-11-02T06:41:03.556Z,8.61
2022-11-02T06:43:47.657Z,8.54
2022-11-02T06:46:31.043Z,8.50
2022-11-02T06:49:14.457Z,8.64
2022-11-02T06:51:58.148Z,8.65
2022-11-02T06:54:41.477Z,8.70
2022-11-02T06:57:24.882Z,8.79
2022-11-02T07:00:20.886Z,8.81
2022-11-02T07:03:10.457Z,8.95
2022-11-02T07:05:55.148Z,8.79
2022-11-02T07:08:38.748Z,8.99
2022-11-02T07:11:22.207Z,8.99
2022-11-02T07:14:05.670Z,9.04
2022-11-02T07:16:49.232Z,9.03
2022-11-02T07:19:32.804Z,9.12
2022-11-02T07:22:16.202Z,9.16
2022-11-02T07:24:59.711Z,9.11
2022-11-02T07:27:43.074Z,9.10
2022-11-02T07:30:29.178Z,9.17
2022-11-02T07:33:12.644Z,9.14
2022-11-02T07:35:56.019Z,9.27
2022-11-02T07:38:39.546Z,9.46
2022-11-02T07:41:22.927Z,9.32
2022-11-02T07:44:06.764Z,9.36
2022-11-02T07:46:52.065Z,9.41
2022-11-02T07:49:35.401Z,9.57
2022-11-02T07:52:18.977Z,9.61
2022-11-02T07:55:02.402Z,9.69
2022-11-02T07:58:08.019Z,9.73
2022-11-02T08:00:55.865Z,9.88
2022-11-02T08:03:42.084Z,9.97
2022-11-02T08:06:25.458Z,10.06
2022-11-02T08:09:09.072Z,10.11
2022-11-02T08:11:52.525Z,10.30
2022-11-02T08:14:35.959Z,10.43
2022-11-02T08:17:19.325Z,10.65
2022-11-02T08:20:02.695Z,10.76
2022-11-02T08:22:46.045Z,10.84
2022-11-02T08:25:29.456Z,10.89
2022-11-02T08:28:21.260Z,10.95
2022-11-02T08:31:04.815Z,10.99
2022-11-02T08:33:48.425Z,11.10
2022-11-02T08:36:31.793Z,11.24
2022-11-02T08:39:18.884Z,11.29
2022-11-02T08:42:02.677Z,11.27
2022-11-02T08:44:46.018Z,11.39
2022-11-02T08:47:29.434Z,11.38
2022-11-02T08:50:12.876Z,11.43
2022-11-02T08:52:56.238Z,11.32
2022-11-02T08:55:39.665Z,11.40
2022-11-02T08:58:23.206Z,11.28
2022-11-02T09:01:06.607Z,11.33
2022-11-02T09:03:50.019Z,11.50
2022-11-02T09:06:33.437Z,11.56
2022-11-02T09:09:16.859Z,11.65
2022-11-02T09:12:00.322Z,11.57
2022-11-02T09:14:43.772Z,11.74
2022-11-02T09:17:27.141Z,11.69
2022-11-02T09:20:10.666Z,11.86
2022-11-02T09:22:54.073Z,11.86
2022-11-02T09:25:37.560Z,12.03
2022-11-02T09:28:20.953Z,11.90
2022-11-02T09:31:07.371Z,12.15
2022-11-02T09:33:53.971Z,11.95
2022-11-02T09:36:37.329Z,12.11
2022-11-02T09:39:23.801Z,12.48
2022-11-02T09:42:43.377Z,12.89
2022-11-02T09:45:28.038Z,12.89
2022-11-02T09:48:24.992Z,13.12
2022-11-02T09:51:21.049Z,13.30
2022-11-02T09:54:27.474Z,13.52
2022-11-02T09:57:19.821Z,13.45
2022-11-02T10:00:05.665Z,13.51
2022-11-02T10:03:01.919Z,13.90
2022-11-02T10:06:02.291Z,13.99
2022-11-02T10:09:11.475Z,13.63
2022-11-02T10:12:10.011Z,13.75
2022-11-02T10:15:20.157Z,13.72
2022-11-02T10:18:06.458Z,14.09
2022-11-02T10:21:14.591Z,14.32
2022-11-02T10:24:23.435Z,14.17
2022-11-02T10:27:21.420Z,14.19
2022-11-02T10:30:14.547Z,14.22
2022-11-02T10:32:58.092Z,14.56
2022-11-02T10:36:22.409Z,14.70
2022-11-02T10:39:34.950Z,14.85
2022-11-02T10:42:56.667Z,14.49
2022-11-02T10:46:08.584Z,14.79
2022-11-02T10:49:21.492Z,14.51
2022-11-02T10:52:05.862Z,15.06
2022-11-02T10:54:52.431Z,15.03
2022-11-02T10:57:39.925Z,14.79
2022-11-02T11:00:33.699Z,14.98
2022-11-02T11:03:19.389Z,14.92
2022-11-02T11:06:04.986Z,14.70
2022-11-02T11:08:50.070Z,15.24
2022-11-02T11:11:38.357Z,15.58
2022-11-02T11:20:43.067Z,14.90
2022-11-02T11:23:27.018Z,15.05
2022-11-02T11:26:30.915Z,15.14
2022-11-02T11:29:23.257Z,15.28
2022-11-02T11:32:29.634Z,15.09
2022-11-02T11:35:19.294Z,15.33
2022-11-02T11:38:15.620Z,15.37
2022-11-02T11:41:00.381Z,14.97
2022-11-02T11:43:47.533Z,14.88
2022-11-02T11:46:46.773Z,14.95
2022-11-02T11:50:09.069Z,14.98
2022-11-02T11:52:38.142Z,15.08
2022-11-02T11:55:28.926Z,14.89
2022-11-02T11:58:31.148Z,14.68
2022-11-02T12:01:17.868Z,14.62
2022-11-02T12:04:01.436Z,14.53
2022-11-02T12:06:56.664Z,14.54
2022-11-02T12:10:02.444Z,14.67
2022-11-02T12:13:27.647Z,14.51
2022-11-02T12:16:42.224Z,14.73
2022-11-02T12:19:50.565Z,14.63
2022-11-02T12:23:26.438Z,14.58
2022-11-02T12:27:03.570Z,14.72
2022-11-02T12:30:24.836Z,14.42
2022-11-02T12:34:04.725Z,14.48
2022-11-02T12:37:41.409Z,14.70
2022-11-02T12:40:37.200Z,14.57
2022-11-02T12:43:47.291Z,14.45
2022-11-02T12:46:49.213Z,14.35
2022-11-02T12:49:44.486Z,14.30
2022-11-02T12:53:21.598Z,14.31
2022-11-02T12:56:38.545Z,14.23
2022-11-02T12:59:34.519Z,14.27
2022-11-02T13:03:33.251Z,14.28
2022-11-02T13:06:32.072Z,14.25
2022-11-02T13:09:15.391Z,14.26
2022-11-02T13:12:15.456Z,14.24
2022-11-02T13:15:01.595Z,14.40
2022-11-02T13:17:59.001Z,14.30
2022-11-02T13:20:45.719Z,14.67
2022-11-02T13:23:54.910Z,14.80
2022-11-02T13:26:42.248Z,15.09
2022-11-02T13:29:46.771Z,14.84
2022-11-02T13:32:56.263Z,15.08
2022-11-02T13:35:43.521Z,14.85
2022-11-02T13:39:04.547Z,14.99
2022-11-02T13:42:36.249Z,14.97
2022-11-02T13:45:38.373Z,14.85
2022-11-02T13:48:41.369Z,14.90
2022-11-02T13:51:44.002Z,14.90
2022-11-02T13:54:30.689Z,14.82
2022-11-02T13:57:42.726Z,14.85
2022-11-02T14:00:25.985Z,14.93
2022-11-02T14:03:29.797Z,14.90
2022-11-02T14:06:17.082Z,14.73
2022-11-02T14:09:08.270Z,14.73
2022-11-02T14:11:51.973Z,14.78
2022-11-02T14:14:35.423Z,14.82
2022-11-02T14:17:18.961Z,14.97
2022-11-02T14:20:04.960Z,14.93
2022-11-02T14:23:22.882Z,14.84
2022-11-02T14:26:32.980Z,14.83
2022-11-02T14:29:45.080Z,14.58
2022-11-02T14:32:47.071Z,14.83
2022-11-02T14:35:45.287Z,14.68
2022-11-02T14:38:58.189Z,14.63
2022-11-02T14:42:15.171Z,14.79
2022-11-02T14:45:25.538Z,14.68
2022-11-02T14:48:18.221Z,14.63
2022-11-02T14:51:07.685Z,14.45
2022-11-02T14:54:02.799Z,14.39
2022-11-02T14:57:07.323Z,14.33
2022-11-02T14:59:56.669Z,14.23
2022-11-02T15:02:43.201Z,14.22
2022-11-02T15:05:38.593Z,14.18
2022-11-02T15:08:31.544Z,14.15
2022-11-02T15:11:59.302Z,14.13
2022-11-02T15:14:42.652Z,13.95
2022-11-02T15:17:26.060Z,13.82
2022-11-02T15:20:15.542Z,13.73
2022-11-02T15:23:30.634Z,14.10
2022-11-02T15:26:42.081Z,13.59
2022-11-02T15:29:41.484Z,13.73
2022-11-02T15:32:30.390Z,13.62
2022-11-02T15:35:25.708Z,13.62
2022-11-02T15:38:19.305Z,13.46
2022-11-02T15:41:29.302Z,13.42
2022-11-02T15:44:18.529Z,13.28
2022-11-02T15:47:35.041Z,13.34
2022-11-02T15:50:56.468Z,13.45
2022-11-02T15:54:12.486Z,13.20
2022-11-02T15:57:22.436Z,13.35
2022-11-02T16:00:19.125Z,13.23
2022-11-02T16:03:06.731Z,13.18
2022-11-02T16:05:51.399Z,13.12
2022-11-02T16:08:38.025Z,13.00
2022-11-02T16:11:21.422Z,12.89
2022-11-02T16:14:23.067Z,12.86
2022-11-02T16:17:31.853Z,12.83
2022-11-02T16:20:23.731Z,12.77
2022-11-02T16:23:16.548Z,12.89
2022-11-02T16:26:03.302Z,13.00
2022-11-02T16:28:54.416Z,12.80
2022-11-02T16:31:40.877Z,12.75
2022-11-02T16:34:32.283Z,12.69
2022-11-02T16:37:19.518Z,12.65
2022-11-02T16:40:05.321Z,12.74
2022-11-02T16:42:53.137Z,12.51
2022-11-02T16:45:43.345Z,12.49
2022-11-02T16:48:33.047Z,12.40
2022-11-02T16:51:19.675Z,12.34
2022-11-02T16:54:41.906Z,12.39
2022-11-02T16:57:33.819Z,12.27
2022-11-02T17:00:20.401Z,12.37
2022-11-02T17:03:10.645Z,12.33
2022-11-02T17:05:54.884Z,12.14
2022-11-02T17:08:41.428Z,12.37
2022-11-02T17:11:25.359Z,12.17
2022-11-02T17:14:11.802Z,11.81
2022-11-02T17:17:02.640Z,11.96
2022-11-02T17:19:53.349Z,11.92
2022-11-02T17:22:49.297Z,11.94
2022-11-02T17:25:38.720Z,11.97
2022-11-02T17:28:34.303Z,11.88
2022-11-02T17:31:33.432Z,11.97
2022-11-02T17:34:20.844Z,11.74
2022-11-02T17:37:06.461Z,11.94
2022-11-02T17:39:50.161Z,11.88
2022-11-02T17:42:54.091Z,12.01
2022-11-02T17:45:39.002Z,11.85
2022-11-02T17:48:22.431Z,11.99
2022-11-02T17:51:12.424Z,11.88
2022-11-02T17:53:56.533Z,11.96
2022-11-02T17:56:40.153Z,11.36
2022-11-02T17:59:23.714Z,11.60
2022-11-02T18:02:15.646Z,11.48
2022-11-02T18:04:59.340Z,11.93
2022-11-02T18:07:42.802Z,11.63
2022-11-02T18:10:38.170Z,11.47
2022-11-02T18:13:24.276Z,11.58
2022-11-02T18:16:07.869Z,11.45
2022-11-02T18:18:51.346Z,11.47
2022-11-02T18:21:35.022Z,11.53
2022-11-02T18:24:19.019Z,11.50
2022-11-02T18:27:02.603Z,11.32
2022-11-02T18:29:45.967Z,11.09
2022-11-02T18:32:29.475Z,11.12
2022-11-02T18:35:17.412Z,11.04
2022-11-02T18:38:00.817Z,10.53
2022-11-02T18:40:44.387Z,10.57
2022-11-02T18:43:27.987Z,10.67
2022-11-02T18:46:11.631Z,10.42
2022-11-02T18:48:56.039Z,10.42
2022-11-02T18:51:43.388Z,10.37
2022-11-02T18:54:26.845Z,10.58
2022-11-02T18:57:10.410Z,10.41
2022-11-02T18:59:53.912Z,10.30
2022-11-02T19:02:41.085Z,10.08
2022-11-02T19:05:43.369Z,10.45
2022-11-02T19:08:45.295Z,10.33
2022-11-02T19:11:29.077Z,10.09
2022-11-02T19:14:12.756Z,10.05
2022-11-02T19:16:56.266Z,10.15
2022-11-02T19:19:41.098Z,9.99
2022-11-02T19:22:26.648Z,9.98
2022-11-02T19:25:12.009Z,9.47
2022-11-02T19:27:55.787Z,9.40
2022-11-02T19:30:40.168Z,9.42
2022-11-02T19:33:23.585Z,9.53
2022-11-02T19:36:07.267Z,9.58
2022-11-02T19:38:51.045Z,9.56
2022-11-02T19:41:35.071Z,9.47
2022-11-02T19:44:18.879Z,9.11
2022-11-02T19:47:02.668Z,9.35
2022-11-02T19:49:46.208Z,9.26
2022-11-02T19:52:30.319Z,9.20
2022-11-02T19:55:13.865Z,8.86
2022-11-02T19:57:57.489Z,9.02
2022-11-02T20:00:40.847Z,9.22
2022-11-02T20:03:25.689Z,9.08
2022-11-02T20:06:18.273Z,9.00
2022-11-02T20:09:04.559Z,8.97
2022-11-02T20:11:48.369Z,9.02
2022-11-02T20:14:33.648Z,9.25
2022-11-02T20:17:31.274Z,9.21
2022-11-02T20:20:17.188Z,9.18
2022-11-02T20:23:01.749Z,8.67
2022-11-02T20:25:46.529Z,8.82
2022-11-02T20:28:30.652Z,8.74
2022-11-02T20:31:21.135Z,8.69
2022-11-02T20:34:08.333Z,8.80
2022-11-02T20:36:51.928Z,8.67
2022-11-02T20:39:35.320Z,8.62
2022-11-02T20:42:18.750Z,8.67
2022-11-02T20:45:02.169Z,8.76
2022-11-02T20:47:46.310Z,8.58
2022-11-02T20:50:29.702Z,8.47
2022-11-02T20:53:13.151Z,8.52
2022-11-02T20:55:57.693Z,8.24
2022-11-02T20:58:41.101Z,8.32
2022-11-02T21:01:24.680Z,8.41
2022-11-02T21:04:08.241Z,8.19
2022-11-02T21:06:52.050Z,8.34
2022-11-02T21:09:35.699Z,8.40
2022-11-02T21:12:37.682Z,8.38
2022-11-02T21:15:21.102Z,8.38
2022-11-02T21:18:04.569Z,8.23
2022-11-02T21:20:48.011Z,8.34
2022-11-02T21:23:31.457Z,8.14
2022-11-02T21:26:15.758Z,7.94
2022-11-02T21:29:01.193Z,8.20
2022-11-02T21:31:45.508Z,8.08
2022-11-02T21:34:28.915Z,7.96
2022-11-02T21:37:12.312Z,7.81
2022-11-02T21:39:55.697Z,7.67
2022-11-02T21:42:40.876Z,7.74
2022-11-02T21:45:26.331Z,7.80
2022-11-02T21:48:09.878Z,7.82
2022-11-02T21:51:15.483Z,7.83
2022-11-02T21:53:58.869Z,7.77
2022-11-02T21:56:43.192Z,8.13
2022-11-02T21:59:26.575Z,7.90
2022-11-02T22:02:10.133Z,7.73
2022-11-02T22:04:53.725Z,7.55
2022-11-02T22:07:57.115Z,7.60
2022-11-02T22:10:40.458Z,7.53
2022-11-02T22:13:32.758Z,7.60
2022-11-02T22:16:24.659Z,7.61
2022-11-02T22:19:12.176Z,7.75
2022-11-02T22:21:55.544Z,7.96
2022-11-02T22:24:44.526Z,7.83
2022-11-02T22:27:28.257Z,7.59
2022-11-02T22:30:12.398Z,7.42
2022-11-02T22:32:55.757Z,7.55
2022-11-02T22:35:39.141Z,7.62
2022-11-02T22:38:40.990Z,7.59
2022-11-02T22:41:25.683Z,7.66
2022-11-02T22:44:15.322Z,7.62
2022-11-02T22:46:58.728Z,7.45
2022-11-02T22:49:42.129Z,7.28
2022-11-02T22:52:25.562Z,7.45
2022-11-02T22:55:10.503Z,7.49
2022-11-02T22:57:58.772Z,7.41
2022-11-02T23:00:44.272Z,7.35
2022-11-02T23:03:31.769Z,7.36
2022-11-02T23:06:18.384Z,7.22
2022-11-02T23:09:02.281Z,7.36
2022-11-02T23:11:45.658Z,7.23
2022-11-02T23:14:29.022Z,7.33
2022-11-02T23:17:12.363Z,7.54
2022-11-02T23:19:55.754Z,7.33
2022-11-02T23:22:59.085Z,7.29
2022-11-02T23:25:42.463Z,7.43
2022-11-02T23:28:44.345Z,7.41
2022-11-02T23:31:50.560Z,7.40
2022-11-02T23:34:33.912Z,7.36
2022-11-02T23:37:17.277Z,7.08
2022-11-02T23:40:00.760Z,7.06
2022-11-02T23:42:44.436Z,7.06
2022-11-02T23:45:27.872Z,7.14
2022-11-02T23:48:11.273Z,7.07
2022-11-02T23:51:16.666Z,6.87
2022-11-02T23:54:18.530Z,7.08
2022-11-02T23:57:01.957Z,7.16
2022-11-02T23:59:45.318Z,7.20
